Lincoln, North Dakota
Current Conditions -  °F | °C
As of 12:52 PM on Thursday 30 Oct 2014 (Local Time) from KBIS Reporting Station
Overcast Overcast  
Wind Chill: 30°   Ceiling: 1300
Heat Index: 36°   Visibility: 10mi
Dew Point: 32°   Wind: 8mph
Humidity: 86%   Direction: 350°N
Pressure: 30.4"   Gusts: NA
Location:  46.7287°N, 100.616°W
Report Text: KBIS 301752Z 35007KT 10SM OVC013 02/00 A3040 RMK AO2 SLP311 T00220000 10022 20000 53025
Loading
Personal Weather Stations






























Interactive Weather Map
Tropical Storm Tracking
New forecast layout! Learn more

10-Day Weather Forecast

Advertisements
Track Severe Weather on mobile